createdAt,value
2018-04-22T00:00:44.714Z,78.60
2018-04-22T00:03:12.988Z,79.18
2018-04-22T00:05:41.267Z,80.29
2018-04-22T00:08:09.527Z,80.93
2018-04-22T00:10:37.835Z,80.54
2018-04-22T00:13:06.098Z,80.00
2018-04-22T00:15:34.362Z,80.41
2018-04-22T00:18:02.650Z,80.94
2018-04-22T00:20:30.915Z,81.38
2018-04-22T00:22:59.197Z,82.16
2018-04-22T00:25:27.471Z,81.61
2018-04-22T00:27:55.759Z,80.96
2018-04-22T00:30:24.048Z,81.27
2018-04-22T00:32:52.335Z,81.17
2018-04-22T00:35:20.604Z,81.32
2018-04-22T00:37:48.875Z,81.84
2018-04-22T00:40:17.151Z,82.47
2018-04-22T00:42:45.417Z,83.00
2018-04-22T00:45:13.694Z,82.28
2018-04-22T00:47:41.968Z,81.35
2018-04-22T00:50:10.253Z,82.25
2018-04-22T00:52:38.528Z,81.76
2018-04-22T00:55:06.812Z,81.73
2018-04-22T00:57:35.085Z,82.20
2018-04-22T01:00:03.346Z,82.33
2018-04-22T01:02:31.626Z,82.62
2018-04-22T01:04:59.898Z,82.65
2018-04-22T01:07:28.182Z,82.86
2018-04-22T01:09:56.534Z,82.57
2018-04-22T01:12:24.800Z,82.57
2018-04-22T01:14:53.070Z,83.15
2018-04-22T01:17:21.347Z,82.77
2018-04-22T01:19:49.636Z,82.41
2018-04-22T01:22:17.903Z,82.71
2018-04-22T01:24:46.168Z,82.62
2018-04-22T01:27:15.216Z,83.27
2018-04-22T01:29:43.487Z,84.40
2018-04-22T01:32:12.538Z,85.46
2018-04-22T01:34:41.567Z,86.71
2018-04-22T01:37:09.840Z,87.10
2018-04-22T01:39:38.118Z,87.43
2018-04-22T01:42:06.386Z,88.41
2018-04-22T01:44:34.928Z,87.51
2018-04-22T01:47:03.988Z,87.06
2018-04-22T01:49:32.263Z,86.69
2018-04-22T01:52:00.559Z,86.15
2018-04-22T01:54:28.846Z,85.78
2018-04-22T01:56:57.104Z,85.80
2018-04-22T01:59:25.381Z,86.38
2018-04-22T02:01:54.405Z,86.61
2018-04-22T02:04:23.428Z,86.82
2018-04-22T02:06:51.716Z,86.13
2018-04-22T02:09:19.971Z,86.08
2018-04-22T02:11:48.247Z,85.67
2018-04-22T02:14:16.513Z,86.15
2018-04-22T02:16:45.564Z,86.20
2018-04-22T02:19:13.840Z,85.99
2018-04-22T02:21:42.106Z,85.64
2018-04-22T02:24:11.158Z,85.12
2018-04-22T02:26:39.426Z,85.29
2018-04-22T02:29:08.492Z,85.26
2018-04-22T02:31:36.754Z,85.15
2018-04-22T02:34:05.019Z,84.58
2018-04-22T02:36:33.318Z,84.81
2018-04-22T02:39:01.584Z,85.50
2018-04-22T02:41:29.867Z,85.74
2018-04-22T02:43:58.150Z,85.99
2018-04-22T02:46:26.419Z,87.18
2018-04-22T02:48:54.699Z,87.92
2018-04-22T02:51:22.964Z,87.55
2018-04-22T02:53:51.248Z,87.00
2018-04-22T02:56:19.512Z,87.09
2018-04-22T02:58:47.778Z,86.07
2018-04-22T03:01:16.051Z,85.67
2018-04-22T03:03:44.313Z,87.29
2018-04-22T03:06:12.588Z,87.09
2018-04-22T03:08:40.843Z,87.70
2018-04-22T03:11:09.121Z,87.33
2018-04-22T03:13:37.395Z,86.46
2018-04-22T03:16:05.733Z,86.49
2018-04-22T03:18:34.072Z,86.79
2018-04-22T03:21:02.331Z,87.54
2018-04-22T03:23:30.602Z,86.80
2018-04-22T03:25:58.861Z,86.80
2018-04-22T03:28:27.993Z,86.56
2018-04-22T03:30:56.287Z,86.30
2018-04-22T03:33:24.653Z,86.06
2018-04-22T03:35:52.927Z,87.08
2018-04-22T03:38:21.199Z,87.12
2018-04-22T03:40:49.463Z,86.93
2018-04-22T03:43:17.750Z,86.85
2018-04-22T03:45:46.010Z,86.60
2018-04-22T03:48:14.298Z,87.20
2018-04-22T03:50:42.563Z,87.77
2018-04-22T03:53:10.890Z,88.29
2018-04-22T03:55:39.167Z,88.26
2018-04-22T03:58:07.514Z,87.69
2018-04-22T04:00:35.778Z,87.38
2018-04-22T04:03:04.080Z,86.93
2018-04-22T04:05:32.354Z,87.39
2018-04-22T04:08:00.621Z,87.71
2018-04-22T04:10:28.907Z,87.44
2018-04-22T04:12:57.191Z,87.46
2018-04-22T04:15:25.464Z,87.10
2018-04-22T04:21:21.323Z,87.65
2018-04-22T04:30:28.512Z,87.76
2018-04-22T04:32:56.789Z,87.71
2018-04-22T04:35:25.052Z,87.33
2018-04-22T04:37:53.334Z,87.08
2018-04-22T04:40:21.634Z,86.50
2018-04-22T04:42:49.901Z,86.93
2018-04-22T04:45:18.278Z,87.27
2018-04-22T04:47:46.550Z,87.20
2018-04-22T04:50:14.832Z,86.50
2018-04-22T04:52:43.103Z,86.05
2018-04-22T04:55:11.368Z,87.46
2018-04-22T04:57:39.664Z,86.98
2018-04-22T05:00:07.925Z,87.21
2018-04-22T05:02:36.210Z,87.67
2018-04-22T05:05:04.475Z,87.17
2018-04-22T05:07:32.763Z,87.01
2018-04-22T05:10:01.027Z,87.38
2018-04-22T05:12:29.301Z,87.35
2018-04-22T05:14:57.601Z,86.95
2018-04-22T05:17:25.865Z,86.62
2018-04-22T05:19:54.140Z,86.91
2018-04-22T05:22:22.404Z,86.77
2018-04-22T05:24:50.671Z,86.53
2018-04-22T05:27:19.734Z,86.44
2018-04-22T05:29:48.002Z,86.42
2018-04-22T05:32:16.346Z,86.13
2018-04-22T05:34:44.644Z,86.26
2018-04-22T05:37:12.999Z,85.52
2018-04-22T05:39:41.297Z,85.43
2018-04-22T05:42:09.551Z,84.90
2018-04-22T05:44:37.843Z,85.18
2018-04-22T05:47:06.134Z,84.48
2018-04-22T05:49:34.423Z,83.56
2018-04-22T05:52:02.696Z,82.95
2018-04-22T05:54:30.971Z,83.15
2018-04-22T05:57:00.008Z,83.00
2018-04-22T05:59:28.308Z,82.70
2018-04-22T06:01:57.337Z,82.31
2018-04-22T06:04:25.678Z,82.23
2018-04-22T06:06:53.958Z,81.88
2018-04-22T06:09:22.223Z,80.96
2018-04-22T06:11:50.493Z,80.83
2018-04-22T06:14:18.787Z,80.39
2018-04-22T06:16:47.116Z,80.58
2018-04-22T06:19:15.399Z,79.44
2018-04-22T06:21:44.532Z,79.51
2018-04-22T06:24:12.790Z,81.40
2018-04-22T06:26:41.081Z,80.58
2018-04-22T06:29:09.350Z,79.98
2018-04-22T06:31:37.659Z,80.69
2018-04-22T06:34:05.928Z,81.12
2018-04-22T06:36:34.202Z,80.65
2018-04-22T06:39:02.479Z,80.52
2018-04-22T06:41:30.740Z,79.89
2018-04-22T06:43:59.035Z,80.28
2018-04-22T06:46:27.300Z,80.25
2018-04-22T06:48:55.551Z,79.29
2018-04-22T06:51:23.855Z,77.88
2018-04-22T06:53:52.123Z,78.42
2018-04-22T06:56:21.403Z,77.64
2018-04-22T06:58:49.729Z,77.26
2018-04-22T07:01:17.949Z,77.40
2018-04-22T07:03:46.983Z,77.55
2018-04-22T07:06:15.243Z,76.74
2018-04-22T07:08:43.530Z,76.34
2018-04-22T07:11:11.811Z,76.19
2018-04-22T07:13:40.083Z,75.71
2018-04-22T07:16:08.352Z,74.95
2018-04-22T07:18:36.626Z,74.40
2018-04-22T07:21:04.905Z,73.30
2018-04-22T07:23:33.169Z,74.54
2018-04-22T07:26:01.438Z,75.04
2018-04-22T07:28:29.722Z,74.71
2018-04-22T07:30:57.978Z,75.50
2018-04-22T07:33:27.034Z,74.65
2018-04-22T07:35:55.295Z,74.41
2018-04-22T07:38:23.661Z,75.68
2018-04-22T07:40:51.933Z,74.84
2018-04-22T07:43:20.207Z,74.33
2018-04-22T07:45:48.471Z,72.80
2018-04-22T07:48:16.776Z,73.39
2018-04-22T07:50:45.067Z,73.08
2018-04-22T07:53:13.425Z,73.76
2018-04-22T07:55:41.679Z,73.24
2018-04-22T07:58:09.961Z,72.26
2018-04-22T08:00:38.222Z,70.60
2018-04-22T08:03:06.630Z,70.88
2018-04-22T08:05:34.914Z,70.00
2018-04-22T08:08:03.208Z,71.82
2018-04-22T08:10:31.511Z,70.56
2018-04-22T08:12:59.831Z,70.80
2018-04-22T08:15:28.107Z,71.06
2018-04-22T08:17:56.389Z,70.55
2018-04-22T08:20:24.671Z,70.36
2018-04-22T08:22:52.936Z,70.86
2018-04-22T08:25:21.218Z,69.44
2018-04-22T08:27:49.479Z,69.26
2018-04-22T08:30:19.714Z,69.59
2018-04-22T08:32:47.988Z,68.74
2018-04-22T08:35:16.272Z,67.84
2018-04-22T08:37:44.534Z,67.22
2018-04-22T08:40:12.802Z,67.03
2018-04-22T08:42:41.102Z,67.40
2018-04-22T08:45:09.356Z,66.33
2018-04-22T08:47:37.750Z,66.62
2018-04-22T08:50:06.011Z,67.41
2018-04-22T08:52:34.295Z,66.73
2018-04-22T08:55:02.583Z,67.07
2018-04-22T08:57:30.850Z,66.60
2018-04-22T08:59:59.170Z,65.01
2018-04-22T09:02:27.444Z,65.10
2018-04-22T09:04:55.779Z,65.26
2018-04-22T09:07:24.089Z,65.82
2018-04-22T09:09:52.344Z,66.86
2018-04-22T09:12:20.631Z,67.43
2018-04-22T09:14:48.894Z,67.89
2018-04-22T09:17:17.183Z,67.20
2018-04-22T09:19:45.463Z,67.43
2018-04-22T09:22:13.744Z,67.56
2018-04-22T09:24:42.093Z,67.93
2018-04-22T09:27:10.398Z,65.34
2018-04-22T09:29:38.747Z,65.88
2018-04-22T09:32:07.040Z,65.80
2018-04-22T09:34:35.314Z,64.81
2018-04-22T09:37:03.594Z,65.47
2018-04-22T09:39:31.871Z,62.79
2018-04-22T09:42:00.163Z,64.92
2018-04-22T09:44:28.454Z,63.57
2018-04-22T09:46:56.787Z,65.21
2018-04-22T09:49:25.072Z,64.12
2018-04-22T09:51:53.343Z,64.63
2018-04-22T09:54:21.639Z,63.35
2018-04-22T09:56:50.335Z,62.70
2018-04-22T09:59:18.606Z,64.26
2018-04-22T10:01:46.892Z,64.28
2018-04-22T10:04:15.160Z,64.69
2018-04-22T10:06:43.523Z,64.48
2018-04-22T10:09:11.796Z,64.37
2018-04-22T10:11:40.074Z,63.12
2018-04-22T10:14:08.342Z,63.08
2018-04-22T10:16:36.667Z,63.79
2018-04-22T10:19:04.983Z,61.27
2018-04-22T10:21:33.264Z,63.47
2018-04-22T10:24:01.544Z,59.82
2018-04-22T10:26:29.819Z,61.52
2018-04-22T10:28:58.114Z,60.82
2018-04-22T10:31:26.412Z,60.45
2018-04-22T10:33:54.689Z,59.71
2018-04-22T10:36:24.471Z,61.02
2018-04-22T10:38:52.835Z,60.43
2018-04-22T10:41:21.134Z,59.75
2018-04-22T10:43:49.490Z,57.43
2018-04-22T10:46:17.777Z,58.00
2018-04-22T10:48:46.044Z,57.66
2018-04-22T10:51:14.328Z,56.90
2018-04-22T10:53:42.599Z,58.26
2018-04-22T10:56:10.869Z,58.42
2018-04-22T10:58:39.161Z,58.55
2018-04-22T11:01:07.463Z,58.45
2018-04-22T11:03:35.734Z,56.23
2018-04-22T11:06:04.005Z,56.18
2018-04-22T11:08:32.377Z,56.68
2018-04-22T11:11:00.648Z,57.83
2018-04-22T11:13:28.931Z,56.31
2018-04-22T11:15:57.216Z,54.22
2018-04-22T11:18:25.479Z,56.08
2018-04-22T11:20:54.563Z,56.47
2018-04-22T11:23:23.002Z,55.05
2018-04-22T11:25:51.315Z,55.92
2018-04-22T11:28:19.598Z,54.92
2018-04-22T11:30:47.875Z,55.04
2018-04-22T11:33:16.135Z,53.04
2018-04-22T11:35:44.426Z,54.32
2018-04-22T11:38:12.692Z,54.59
2018-04-22T11:40:40.954Z,52.09
2018-04-22T11:43:09.267Z,51.65
2018-04-22T11:45:37.623Z,51.21
2018-04-22T11:48:06.008Z,50.79
2018-04-22T11:50:34.286Z,50.15
2018-04-22T11:53:02.669Z,48.62
2018-04-22T11:55:30.940Z,48.49
2018-04-22T11:57:59.220Z,46.84
2018-04-22T12:00:27.487Z,47.88
2018-04-22T12:02:55.763Z,47.18
2018-04-22T12:05:24.068Z,46.24
2018-04-22T12:07:52.419Z,45.21
2018-04-22T12:10:20.703Z,45.52
2018-04-22T12:12:48.985Z,44.10
2018-04-22T12:15:17.352Z,44.82
2018-04-22T12:17:45.612Z,44.48
2018-04-22T12:20:13.888Z,45.28
2018-04-22T12:22:43.003Z,45.30
2018-04-22T12:25:11.287Z,45.60
2018-04-22T12:27:39.654Z,44.49
2018-04-22T12:30:07.934Z,41.87
2018-04-22T12:32:36.243Z,43.28
2018-04-22T12:35:04.594Z,42.49
2018-04-22T12:37:32.968Z,44.45
2018-04-22T12:40:01.273Z,43.15
2018-04-22T12:42:29.593Z,44.09
2018-04-22T12:44:58.634Z,44.03
2018-04-22T12:47:26.923Z,43.51
2018-04-22T12:49:55.203Z,41.96
2018-04-22T12:52:23.542Z,42.45
2018-04-22T12:54:51.879Z,41.82
2018-04-22T12:57:20.099Z,44.04
2018-04-22T12:59:48.355Z,42.87
2018-04-22T13:02:16.647Z,41.76
2018-04-22T13:04:44.963Z,39.78
2018-04-22T13:07:13.306Z,40.01
2018-04-22T13:09:41.583Z,38.90
2018-04-22T13:12:09.848Z,37.74
2018-04-22T13:14:38.162Z,38.38
2018-04-22T13:17:06.435Z,38.53
2018-04-22T13:19:34.790Z,38.13
2018-04-22T13:22:03.050Z,39.59
2018-04-22T13:24:31.343Z,37.20
2018-04-22T13:26:59.719Z,37.13
2018-04-22T13:29:27.982Z,36.28
2018-04-22T13:31:56.297Z,35.44
2018-04-22T13:34:24.570Z,36.40
2018-04-22T13:36:52.851Z,34.98
2018-04-22T13:39:21.133Z,34.81
2018-04-22T13:41:49.400Z,36.04
2018-04-22T13:44:17.678Z,34.38
2018-04-22T13:46:45.939Z,34.15
2018-04-22T13:49:14.245Z,33.64
2018-04-22T13:51:42.507Z,35.21
2018-04-22T13:54:10.796Z,32.18
2018-04-22T13:56:39.145Z,32.08
2018-04-22T13:59:07.408Z,33.18
2018-04-22T14:01:35.678Z,33.44
2018-04-22T14:04:03.998Z,33.73
2018-04-22T14:06:32.343Z,33.82
2018-04-22T14:09:00.599Z,34.10
2018-04-22T14:11:28.931Z,35.12
2018-04-22T14:13:57.214Z,36.67
2018-04-22T14:16:25.528Z,37.89
2018-04-22T14:18:54.575Z,38.94
2018-04-22T14:21:22.854Z,40.85
2018-04-22T14:23:51.160Z,41.24
2018-04-22T14:26:20.190Z,44.35
2018-04-22T14:28:48.464Z,42.99
2018-04-22T14:31:16.741Z,42.96
2018-04-22T14:33:45.021Z,42.10
2018-04-22T14:36:13.319Z,42.96
2018-04-22T14:38:41.599Z,43.29
2018-04-22T14:41:09.882Z,42.55
2018-04-22T14:43:38.165Z,42.53
2018-04-22T14:46:14.261Z,42.97
2018-04-22T14:49:01.050Z,44.41
2018-04-22T14:51:29.330Z,44.85
2018-04-22T14:53:58.362Z,45.47
2018-04-22T14:56:26.623Z,46.35
2018-04-22T14:58:54.900Z,46.04
2018-04-22T15:01:23.168Z,47.17
2018-04-22T15:03:52.211Z,47.22
2018-04-22T15:06:20.506Z,48.27
2018-04-22T15:08:48.787Z,63.55
2018-04-22T15:11:17.070Z,70.21
2018-04-22T15:13:45.352Z,74.87
2018-04-22T15:16:13.675Z,75.51
2018-04-22T15:18:41.939Z,77.24
2018-04-22T15:21:10.220Z,79.41
2018-04-22T15:23:38.485Z,80.53
2018-04-22T15:26:06.768Z,82.12
2018-04-22T15:28:35.051Z,83.70
2018-04-22T15:31:03.317Z,84.25
2018-04-22T15:33:31.594Z,82.59
2018-04-22T15:35:59.870Z,82.91
2018-04-22T15:38:28.183Z,83.54
2018-04-22T15:40:56.451Z,82.05
2018-04-22T15:43:24.739Z,75.42
2018-04-22T15:45:53.023Z,72.93
2018-04-22T15:48:21.286Z,76.56
2018-04-22T15:50:50.380Z,79.12
2018-04-22T15:53:18.642Z,74.78
2018-04-22T15:55:46.918Z,76.16
2018-04-22T15:58:15.236Z,75.28
2018-04-22T16:00:43.548Z,76.45
2018-04-22T16:03:11.816Z,77.08
2018-04-22T16:05:40.864Z,78.60
2018-04-22T16:08:09.134Z,80.13
2018-04-22T16:10:37.395Z,84.11
2018-04-22T16:13:05.698Z,83.52
2018-04-22T16:15:33.967Z,84.86
2018-04-22T16:18:02.248Z,82.93
2018-04-22T16:20:30.515Z,85.37
2018-04-22T16:22:59.603Z,84.48
2018-04-22T16:25:27.876Z,82.57
2018-04-22T16:27:56.166Z,83.60
2018-04-22T16:30:24.421Z,83.61
2018-04-22T16:32:52.689Z,83.73
2018-04-22T16:35:21.007Z,84.06
2018-04-22T16:37:49.239Z,80.31
2018-04-22T16:40:17.527Z,77.08
2018-04-22T16:42:45.786Z,78.04
2018-04-22T16:45:14.052Z,80.48
2018-04-22T16:47:42.360Z,81.13
2018-04-22T16:50:10.611Z,77.74
2018-04-22T16:52:38.902Z,76.07
2018-04-22T16:55:07.171Z,75.01
2018-04-22T16:57:35.437Z,76.48
2018-04-22T17:00:03.728Z,78.71
2018-04-22T17:02:31.982Z,78.55
2018-04-22T17:05:01.031Z,77.70
2018-04-22T17:07:29.304Z,75.60
2018-04-22T17:09:57.614Z,76.95
2018-04-22T17:12:25.891Z,77.11
2018-04-22T17:14:54.975Z,75.77
2018-04-22T17:17:23.223Z,77.79
2018-04-22T17:19:51.496Z,77.11
2018-04-22T17:22:19.790Z,77.19
2018-04-22T17:24:48.837Z,78.67
2018-04-22T17:27:17.147Z,79.08
2018-04-22T17:29:45.445Z,77.70
2018-04-22T17:32:13.753Z,76.91
2018-04-22T17:34:42.808Z,75.34
2018-04-22T17:37:11.108Z,79.26
2018-04-22T17:39:39.405Z,81.32
2018-04-22T17:42:08.524Z,81.92
2018-04-22T17:44:36.962Z,81.25
2018-04-22T17:47:06.162Z,81.04
2018-04-22T17:49:34.706Z,82.05
2018-04-22T17:52:03.128Z,82.91
2018-04-22T17:54:32.932Z,82.68
2018-04-22T17:57:01.616Z,82.97
2018-04-22T17:59:30.322Z,83.45
2018-04-22T18:01:58.920Z,83.77
2018-04-22T18:04:27.213Z,83.79
2018-04-22T18:06:56.024Z,83.78
2018-04-22T18:09:25.652Z,83.02
2018-04-22T18:11:54.060Z,82.24
2018-04-22T18:14:23.101Z,82.58
2018-04-22T18:16:52.278Z,83.12
2018-04-22T18:19:21.655Z,82.83
2018-04-22T18:21:50.921Z,83.06
2018-04-22T18:24:20.107Z,82.19
2018-04-22T18:26:49.458Z,81.88
2018-04-22T18:29:19.512Z,81.84
2018-04-22T18:31:48.928Z,81.91
2018-04-22T18:34:18.105Z,82.62
2018-04-22T18:36:48.949Z,81.89
2018-04-22T18:39:18.178Z,81.81
2018-04-22T18:41:48.828Z,82.52
2018-04-22T18:44:18.140Z,82.11
2018-04-22T18:46:49.536Z,83.27
2018-04-22T18:49:18.987Z,84.66
2018-04-22T18:51:49.629Z,84.88
2018-04-22T18:54:18.901Z,85.05
2018-04-22T18:56:49.932Z,84.39
2018-04-22T18:59:19.285Z,84.20
2018-04-22T19:01:49.801Z,86.73
2018-04-22T19:04:19.919Z,86.72
2018-04-22T19:06:50.393Z,87.06
2018-04-22T19:09:19.823Z,87.13
2018-04-22T19:11:49.286Z,87.81
2018-04-22T19:14:18.637Z,86.88
2018-04-22T19:16:49.810Z,88.66
2018-04-22T19:19:19.990Z,91.65
2018-04-22T19:21:49.290Z,91.46
2018-04-22T19:24:18.639Z,91.40
2018-04-22T19:26:49.951Z,90.94
2018-04-22T19:29:19.492Z,90.33
2018-04-22T19:31:50.043Z,90.43
2018-04-22T19:34:19.966Z,90.19
2018-04-22T19:36:49.749Z,89.54
2018-04-22T19:39:20.222Z,89.09
2018-04-22T19:41:49.637Z,88.81
2018-04-22T19:44:19.039Z,88.04
2018-04-22T19:46:50.026Z,87.64
2018-04-22T19:49:19.360Z,89.67
2018-04-22T19:51:50.010Z,90.31
2018-04-22T19:54:19.428Z,90.05
2018-04-22T19:56:49.956Z,90.18
2018-04-22T19:59:19.410Z,90.17
2018-04-22T20:01:50.204Z,89.92
2018-04-22T20:04:20.416Z,89.17
2018-04-22T20:06:51.209Z,88.90
2018-04-22T20:09:22.235Z,88.49
2018-04-22T20:11:51.630Z,88.69
2018-04-22T20:14:21.028Z,88.69
2018-04-22T20:16:50.754Z,88.31
2018-04-22T20:19:20.197Z,88.58
2018-04-22T20:21:51.422Z,88.86
2018-04-22T20:24:20.684Z,88.92
2018-04-22T20:26:50.852Z,89.25
2018-04-22T20:29:20.299Z,88.67
2018-04-22T20:31:50.811Z,89.48
2018-04-22T20:34:20.098Z,90.67
2018-04-22T20:36:49.366Z,90.02
2018-04-22T20:39:18.660Z,90.04
2018-04-22T20:41:48.019Z,90.08
2018-04-22T20:44:18.470Z,89.80
2018-04-22T20:46:48.727Z,89.52
2018-04-22T20:49:17.934Z,89.47
2018-04-22T20:51:47.575Z,89.42
2018-04-22T20:54:16.293Z,89.95
2018-04-22T20:56:45.380Z,91.12
2018-04-22T20:59:13.651Z,90.89
2018-04-22T21:01:41.913Z,90.75
2018-04-22T21:04:10.200Z,90.34
2018-04-22T21:06:38.474Z,90.86
2018-04-22T21:09:06.743Z,90.10
2018-04-22T21:11:35.036Z,90.10
2018-04-22T21:14:03.308Z,90.08
2018-04-22T21:16:31.576Z,90.67
2018-04-22T21:18:59.850Z,91.04
2018-04-22T21:21:28.116Z,90.76
2018-04-22T21:23:57.198Z,90.45
2018-04-22T21:26:26.227Z,90.21
2018-04-22T21:28:54.501Z,90.24
2018-04-22T21:31:22.789Z,90.35
2018-04-22T21:33:51.062Z,90.20
2018-04-22T21:36:19.328Z,90.92
2018-04-22T21:38:47.613Z,90.86
2018-04-22T21:41:15.904Z,90.75
2018-04-22T21:43:44.183Z,90.77
2018-04-22T21:46:12.461Z,90.41
2018-04-22T21:48:40.724Z,90.74
2018-04-22T21:51:09.003Z,91.04
2018-04-22T21:53:37.290Z,91.07
2018-04-22T21:56:05.710Z,92.45
2018-04-22T21:58:33.935Z,91.70
2018-04-22T22:01:02.211Z,91.99
2018-04-22T22:03:31.259Z,91.61
2018-04-22T22:06:00.307Z,91.17
2018-04-22T22:08:29.350Z,91.16
2018-04-22T22:10:58.375Z,91.27
2018-04-22T22:13:26.642Z,92.17
2018-04-22T22:15:54.931Z,91.08
2018-04-22T22:18:23.195Z,90.68
2018-04-22T22:20:51.463Z,90.20
2018-04-22T22:23:19.746Z,90.40
2018-04-22T22:25:48.006Z,89.86
2018-04-22T22:28:17.039Z,91.17
2018-04-22T22:30:45.325Z,91.13
2018-04-22T22:33:13.593Z,90.78
2018-04-22T22:35:41.884Z,90.93
2018-04-22T22:38:10.183Z,91.61
2018-04-22T22:40:38.474Z,93.33
2018-04-22T22:43:07.503Z,95.65
2018-04-22T22:45:35.807Z,96.09
2018-04-22T22:48:04.072Z,97.32
2018-04-22T22:50:33.114Z,96.70
2018-04-22T22:53:02.147Z,96.33
2018-04-22T22:55:30.441Z,94.94
2018-04-22T22:57:58.703Z,94.52
2018-04-22T23:00:26.981Z,93.65
2018-04-22T23:02:55.251Z,92.96
2018-04-22T23:05:23.508Z,93.01
2018-04-22T23:07:51.786Z,92.57
2018-04-22T23:10:20.060Z,92.16
2018-04-22T23:12:48.351Z,92.03
2018-04-22T23:15:16.631Z,91.69
2018-04-22T23:17:44.914Z,91.49
2018-04-22T23:20:13.179Z,91.78
2018-04-22T23:22:41.461Z,94.99
2018-04-22T23:25:09.718Z,95.44
2018-04-22T23:27:37.984Z,94.65
2018-04-22T23:30:07.089Z,94.06
2018-04-22T23:32:35.311Z,93.06
2018-04-22T23:35:03.571Z,92.89
2018-04-22T23:37:31.852Z,92.66
2018-04-22T23:40:00.120Z,93.07
2018-04-22T23:42:28.390Z,92.81
2018-04-22T23:44:56.669Z,92.70
2018-04-22T23:47:25.046Z,93.85
2018-04-22T23:49:53.313Z,93.33
2018-04-22T23:52:21.689Z,92.71
2018-04-22T23:54:49.978Z,92.24
2018-04-22T23:57:18.254Z,91.88
2018-04-22T23:59:46.632Z,91.53
